Williamsburg-Whitley County (BYL)

 

Airport Diagram
No Airport Diagram Available
Current Weather/Forecast (VFR Conditions)
METAR KBYL 240035Z AUTO 00000KT 10SM CLR 18/18 A3004 RMK AO1
TAF

Airport Information

All Charts
General
Chart Name View
TAKEOFF MINIMUMS
ALTERNATE MINIMUMS
TAKEOFF MINIMUMS
ALTERNATE MINIMUMS

Approaches
Chart Name Download
RNAV (GPS) RWY 02
RNAV (GPS) RWY 20
LOC RWY 20
VOR RWY 20
RNAV (GPS) RWY 02
RNAV (GPS) RWY 20
LOC RWY 20
VOR RWY 20


Airport Statistics
Departures Arrivals Local
All Collected Stats since June 2016: 0 0 0
2020 Stats: 0 0 0
October Stats: 0 0 0

Inbound Traffic (Arrivals) - 0

No inbound traffic.


Outbound Traffic (Departures) - 0

No outbound traffic.


Local Traffic (Pattern) - 0

No local traffic.